Time;durP1;ratioP1;P1;durP2;ratioP2;P2;SDS_P1;SDS_P2;PMS_P1;PMS_P2;Temp;Humidity;BMP_temperature;BMP_pressure;BME280_temperature;BME280_humidity;BME280_pressure;Samples;Min_cycle;Max_cycle;Signal;HPM_P1;HPM_P2
2023/10/19 00:01:44;;;;;;;49.63;33.35;;;;;;;;;;6226422;28;20061;-68
2023/10/19 00:04:44;;;;;;;49.53;31.88;;;;;;;;;;6230635;28;20333;-68
2023/10/19 00:07:47;;;;;;;49.35;31.50;;;;;;;;;;6254097;28;20045;-67
2023/10/19 00:11:01;;;;;;;50.08;31.52;;;;;;;;;;6251903;28;20111;-71
2023/10/19 00:14:03;;;;;;;47.58;30.48;;;;;;;;;;6250706;28;20053;-69
2023/10/19 00:17:10;;;;;;;48.03;31.98;;;;;;;;;;6258533;28;20091;-68
2023/10/19 00:20:36;;;;;;;47.05;30.25;;;;;;;;;;6261214;28;20060;-68
2023/10/19 00:23:39;;;;;;;47.70;31.65;;;;;;;;;;6254757;28;20053;-68
2023/10/19 00:26:41;;;;;;;44.50;30.90;;;;;;;;;;6246843;28;20112;-67
2023/10/19 00:29:48;;;;;;;46.95;31.67;;;;;;;;;;6252459;28;20060;-67
2023/10/19 00:32:52;;;;;;;44.92;30.33;;;;;;;;;;6252065;28;20142;-70
2023/10/19 00:35:59;;;;;;;48.13;31.23;;;;;;;;;;6254338;28;20087;-67
2023/10/19 00:39:05;;;;;;;44.60;29.95;;;;;;;;;;6253868;28;20057;-70
2023/10/19 00:42:07;;;;;;;49.25;31.00;;;;;;;;;;6249563;28;20064;-69
2023/10/19 00:45:12;;;;;;;44.05;30.42;;;;;;;;;;6254202;28;20045;-71
2023/10/19 00:48:17;;;;;;;48.90;31.63;;;;;;;;;;6253383;28;20120;-69
2023/10/19 00:51:37;;;;;;;55.25;33.63;;;;;;;;;;6249709;28;20364;-69
2023/10/19 00:54:51;;;;;;;53.15;33.17;;;;;;;;;;6254605;28;20091;-69
2023/10/19 00:57:54;;;;;;;55.38;32.45;;;;;;;;;;6252498;28;20061;-68
2023/10/19 01:00:56;;;;;;;50.55;32.60;;;;;;;;;;6252959;28;20334;-69
2023/10/19 01:03:59;;;;;;;53.80;31.75;;;;;;;;;;6257645;28;20234;-69
2023/10/19 01:07:05;;;;;;;54.07;34.07;;;;;;;;;;6252455;28;20338;-68
2023/10/19 01:10:08;;;;;;;58.65;35.13;;;;;;;;;;6248749;28;20073;-68
2023/10/19 01:13:12;;;;;;;55.63;34.67;;;;;;;;;;6254178;28;20190;-69
2023/10/19 01:16:20;;;;;;;54.60;36.08;;;;;;;;;;6256735;28;20076;-70
2023/10/19 01:19:23;;;;;;;59.00;36.88;;;;;;;;;;6245753;28;21244;-70
2023/10/19 01:22:26;;;;;;;63.00;36.53;;;;;;;;;;6234634;28;20178;-68
2023/10/19 01:25:34;;;;;;;59.43;37.63;;;;;;;;;;6242693;28;20446;-68
2023/10/19 01:28:43;;;;;;;60.72;38.22;;;;;;;;;;6234835;28;20057;-70
2023/10/19 01:31:55;;;;;;;65.47;38.25;;;;;;;;;;6247921;28;20056;-70
2023/10/19 01:34:57;;;;;;;59.15;36.42;;;;;;;;;;6245637;28;20075;-70
2023/10/19 01:37:58;;;;;;;59.20;35.92;;;;;;;;;;6242940;28;20049;-69
2023/10/19 01:41:07;;;;;;;56.95;36.13;;;;;;;;;;6245146;28;20096;-70
2023/10/19 01:44:13;;;;;;;56.92;35.53;;;;;;;;;;6239910;28;20046;-68
2023/10/19 01:47:16;;;;;;;61.90;36.50;;;;;;;;;;6246891;28;20048;-68
2023/10/19 01:50:19;;;;;;;56.73;36.13;;;;;;;;;;6251933;28;20641;-69
2023/10/19 01:53:25;;;;;;;56.55;34.53;;;;;;;;;;6245575;28;20057;-70
2023/10/19 01:56:28;;;;;;;55.28;34.40;;;;;;;;;;6238316;28;20049;-70
2023/10/19 01:59:30;;;;;;;53.17;33.25;;;;;;;;;;6243178;28;20472;-70
2023/10/19 02:02:32;;;;;;;57.78;34.83;;;;;;;;;;6237067;28;20054;-72
2023/10/19 02:05:39;;;;;;;51.33;32.63;;;;;;;;;;6244644;28;20049;-71
2023/10/19 02:08:40;;;;;;;55.00;33.55;;;;;;;;;;6235114;28;20050;-70
2023/10/19 02:11:46;;;;;;;60.20;35.70;;;;;;;;;;6236343;28;20057;-70
2023/10/19 02:14:47;;;;;;;52.30;33.17;;;;;;;;;;6229830;28;20116;-71
2023/10/19 02:17:48;;;;;;;58.95;34.72;;;;;;;;;;6230566;28;20057;-73
2023/10/19 02:20:52;;;;;;;56.63;35.53;;;;;;;;;;6226321;28;20180;-72
2023/10/19 02:23:53;;;;;;;56.95;34.08;;;;;;;;;;6226094;28;20058;-71
2023/10/19 02:26:57;;;;;;;61.58;35.78;;;;;;;;;;6223533;28;20286;-71
2023/10/19 02:29:58;;;;;;;57.47;34.97;;;;;;;;;;6224473;28;20060;-69
2023/10/19 02:33:00;;;;;;;62.03;37.80;;;;;;;;;;6231923;28;20108;-70
2023/10/19 02:36:01;;;;;;;63.47;36.88;;;;;;;;;;6239454;28;20050;-70
2023/10/19 02:39:08;;;;;;;66.35;38.53;;;;;;;;;;6233640;28;20092;-70
2023/10/19 02:42:10;;;;;;;59.80;35.30;;;;;;;;;;6241278;28;20274;-70
2023/10/19 02:45:12;;;;;;;56.63;36.50;;;;;;;;;;6228811;28;20049;-70
2023/10/19 02:48:13;;;;;;;54.65;33.50;;;;;;;;;;6241049;28;20069;-70
2023/10/19 02:51:14;;;;;;;57.30;34.28;;;;;;;;;;6233960;28;20059;-70
2023/10/19 02:54:19;;;;;;;58.42;35.20;;;;;;;;;;6245553;28;20046;-72
2023/10/19 02:57:22;;;;;;;60.20;35.45;;;;;;;;;;6238367;28;20185;-70
2023/10/19 03:00:32;;;;;;;59.73;36.77;;;;;;;;;;6254834;28;20096;-70
2023/10/19 03:03:34;;;;;;;56.75;37.63;;;;;;;;;;6225464;28;20121;-74
2023/10/19 03:06:36;;;;;;;59.05;37.50;;;;;;;;;;6224887;28;20050;-71
2023/10/19 03:09:36;;;;;;;56.28;37.00;;;;;;;;;;6221907;28;20121;-70
2023/10/19 03:12:40;;;;;;;53.63;36.42;;;;;;;;;;6227946;28;20437;-71
2023/10/19 03:15:43;;;;;;;;;;;;;;;;;;6225241;28;20056;-73
2023/10/19 03:18:44;;;;;;;56.20;37.17;;;;;;;;;;6249772;28;19925;-71
2023/10/19 03:21:48;;;;;;;59.30;38.58;;;;;;;;;;6251402;28;20066;-71
2023/10/19 03:24:58;;;;;;;62.67;38.75;;;;;;;;;;6246470;28;20071;-71
2023/10/19 03:28:08;;;;;;;62.50;38.50;;;;;;;;;;6250368;28;20140;-71
2023/10/19 03:31:13;;;;;;;61.17;38.25;;;;;;;;;;6249407;28;20325;-70
2023/10/19 03:34:16;;;;;;;59.08;38.17;;;;;;;;;;6254941;28;20055;-70
2023/10/19 03:37:19;;;;;;;61.83;38.90;;;;;;;;;;6252503;28;20102;-74
2023/10/19 03:40:27;;;;;;;59.90;38.63;;;;;;;;;;6257994;28;20069;-70
2023/10/19 03:43:30;;;;;;;57.63;37.97;;;;;;;;;;6249594;28;20053;-70
2023/10/19 03:46:37;;;;;;;57.03;36.97;;;;;;;;;;6253213;28;20222;-70
2023/10/19 03:49:40;;;;;;;56.15;36.25;;;;;;;;;;6255123;28;20053;-71
2023/10/19 03:52:41;;;;;;;58.08;37.17;;;;;;;;;;6256277;28;20050;-70
2023/10/19 03:55:44;;;;;;;56.78;38.40;;;;;;;;;;6254328;28;20053;-71
2023/10/19 03:58:50;;;;;;;55.95;37.95;;;;;;;;;;6254545;28;20049;-71
2023/10/19 04:01:52;;;;;;;56.25;37.08;;;;;;;;;;6251209;28;20070;-71
2023/10/19 04:04:55;;;;;;;57.65;37.83;;;;;;;;;;6252407;28;20049;-70
2023/10/19 04:07:57;;;;;;;56.65;37.55;;;;;;;;;;6252116;28;20095;-70
2023/10/19 04:11:11;;;;;;;58.25;36.38;;;;;;;;;;6252095;28;20493;-70
2023/10/19 04:14:15;;;;;;;60.22;38.03;;;;;;;;;;6256912;28;20041;-70
2023/10/19 04:17:20;;;;;;;55.42;36.35;;;;;;;;;;6249898;28;20071;-71
2023/10/19 04:20:29;;;;;;;60.85;36.85;;;;;;;;;;6256655;28;20064;-71
2023/10/19 04:23:34;;;;;;;57.05;35.60;;;;;;;;;;6254987;28;20103;-70
2023/10/19 04:26:38;;;;;;;57.25;36.35;;;;;;;;;;6253778;28;20056;-68
2023/10/19 04:29:43;;;;;;;57.27;36.60;;;;;;;;;;6252911;28;20072;-70
2023/10/19 04:32:45;;;;;;;58.35;35.92;;;;;;;;;;6256281;28;20083;-70
2023/10/19 04:35:52;;;;;;;56.53;35.75;;;;;;;;;;6257159;28;20337;-70
2023/10/19 04:38:55;;;;;;;65.00;38.03;;;;;;;;;;6252145;28;20057;-70
2023/10/19 04:41:57;;;;;;;56.03;34.87;;;;;;;;;;6248629;28;20063;-70
2023/10/19 04:45:01;;;;;;;58.53;35.28;;;;;;;;;;6255013;28;20298;-70
2023/10/19 04:48:04;;;;;;;58.05;35.03;;;;;;;;;;6256158;28;20053;-70
2023/10/19 04:51:05;;;;;;;54.13;34.33;;;;;;;;;;6253830;28;20053;-70
2023/10/19 04:54:08;;;;;;;55.50;34.17;;;;;;;;;;6258458;28;20061;-69
2023/10/19 04:57:10;;;;;;;53.95;33.53;;;;;;;;;;6253029;28;20049;-70
2023/10/19 05:00:15;;;;;;;51.33;31.98;;;;;;;;;;6250713;28;20183;-70
2023/10/19 05:03:18;;;;;;;51.63;32.08;;;;;;;;;;6252738;28;20073;-71
2023/10/19 05:06:22;;;;;;;52.47;32.60;;;;;;;;;;6250939;28;20057;-70
2023/10/19 05:09:23;;;;;;;55.63;33.00;;;;;;;;;;6250684;28;20119;-70
2023/10/19 05:12:25;;;;;;;52.20;31.85;;;;;;;;;;6255605;28;20053;-69
2023/10/19 05:15:28;;;;;;;51.58;31.85;;;;;;;;;;6251924;28;20108;-66
2023/10/19 05:18:30;;;;;;;53.70;31.27;;;;;;;;;;6250571;28;20060;-69
2023/10/19 05:21:31;;;;;;;52.25;31.73;;;;;;;;;;6251114;28;20053;-69
2023/10/19 05:24:33;;;;;;;54.65;32.92;;;;;;;;;;6251256;28;20131;-69
2023/10/19 05:27:35;;;;;;;52.92;31.85;;;;;;;;;;6254062;28;20056;-68
2023/10/19 05:30:38;;;;;;;53.20;32.47;;;;;;;;;;6259286;28;20123;-73
2023/10/19 05:33:39;;;;;;;53.60;31.90;;;;;;;;;;6258549;28;20067;-69
2023/10/19 05:36:43;;;;;;;50.25;31.67;;;;;;;;;;6250843;28;20045;-67
2023/10/19 05:39:45;;;;;;;53.30;32.38;;;;;;;;;;6248757;28;20124;-68
2023/10/19 05:42:47;;;;;;;57.13;31.92;;;;;;;;;;6256863;28;20139;-68
2023/10/19 05:45:50;;;;;;;54.45;31.83;;;;;;;;;;6251639;28;20342;-68
2023/10/19 05:48:52;;;;;;;53.07;31.80;;;;;;;;;;6253655;28;20056;-68
2023/10/19 05:51:54;;;;;;;47.65;29.75;;;;;;;;;;6252819;28;20073;-69
2023/10/19 05:54:57;;;;;;;50.00;30.33;;;;;;;;;;6258475;28;20045;-68
2023/10/19 05:57:58;;;;;;;45.35;28.88;;;;;;;;;;6248599;28;20084;-69
2023/10/19 06:01:02;;;;;;;49.88;28.55;;;;;;;;;;6252224;28;20045;-69
2023/10/19 06:04:04;;;;;;;50.17;28.83;;;;;;;;;;6254230;28;20065;-68
2023/10/19 06:07:05;;;;;;;49.15;28.48;;;;;;;;;;6256812;28;20063;-68
2023/10/19 06:10:08;;;;;;;48.13;27.20;;;;;;;;;;6252442;28;20045;-69
2023/10/19 06:13:10;;;;;;;47.38;27.98;;;;;;;;;;6246613;28;20291;-68
2023/10/19 06:16:14;;;;;;;47.05;28.60;;;;;;;;;;6248537;28;20248;-69
2023/10/19 06:19:17;;;;;;;48.47;28.27;;;;;;;;;;6247101;28;20057;-68
2023/10/19 06:22:19;;;;;;;45.92;27.83;;;;;;;;;;6246478;28;20049;-68
2023/10/19 06:25:22;;;;;;;41.03;24.40;;;;;;;;;;6243176;28;20041;-68
2023/10/19 06:28:23;;;;;;;44.60;25.57;;;;;;;;;;6232778;28;20050;-67
2023/10/19 06:31:28;;;;;;;43.67;25.40;;;;;;;;;;6241710;28;20053;-69
2023/10/19 06:34:30;;;;;;;40.58;24.08;;;;;;;;;;6235673;28;20112;-68
2023/10/19 06:37:31;;;;;;;41.03;25.33;;;;;;;;;;6248630;28;20054;-68
2023/10/19 06:40:36;;;;;;;44.58;25.58;;;;;;;;;;6250640;28;20053;-68
2023/10/19 06:43:37;;;;;;;;;;;;;;;;;;6253547;28;20080;-69
2023/10/19 06:46:40;;;;;;;45.30;25.67;;;;;;;;;;6249565;28;20114;-69
2023/10/19 06:49:42;;;;;;;46.97;25.92;;;;;;;;;;6247388;28;20080;-68
2023/10/19 06:52:46;;;;;;;41.53;25.85;;;;;;;;;;6254794;28;20045;-69
2023/10/19 06:55:48;;;;;;;42.90;25.13;;;;;;;;;;6247527;28;20056;-68
2023/10/19 06:58:49;;;;;;;45.58;27.23;;;;;;;;;;6251909;28;20048;-68
2023/10/19 07:01:52;;;;;;;40.92;25.25;;;;;;;;;;6251458;28;20049;-69
2023/10/19 07:04:54;;;;;;;45.47;26.40;;;;;;;;;;6254280;28;20057;-69
2023/10/19 07:07:56;;;;;;;42.80;24.65;;;;;;;;;;6254166;28;20103;-68
2023/10/19 07:10:58;;;;;;;41.30;24.60;;;;;;;;;;6250340;28;20322;-68
2023/10/19 07:14:02;;;;;;;41.25;25.45;;;;;;;;;;6250378;28;20053;-68
2023/10/19 07:17:05;;;;;;;41.05;25.05;;;;;;;;;;6248352;28;20054;-68
2023/10/19 07:20:09;;;;;;;41.05;24.50;;;;;;;;;;6250254;28;20048;-68
2023/10/19 07:23:19;;;;;;;;;;;;;;;;;;6260388;28;20060;-68
2023/10/19 07:26:30;;;;;;;44.95;25.30;;;;;;;;;;6256793;28;19945;-69
2023/10/19 07:29:33;;;;;;;42.13;24.70;;;;;;;;;;6254647;28;20057;-68
2023/10/19 07:32:38;;;;;;;43.75;25.52;;;;;;;;;;6247936;28;20238;-71
2023/10/19 07:35:42;;;;;;;43.38;25.95;;;;;;;;;;6248111;28;20057;-68
2023/10/19 07:38:45;;;;;;;45.13;25.27;;;;;;;;;;6250866;28;20065;-68
2023/10/19 07:41:47;;;;;;;40.58;24.98;;;;;;;;;;6258595;28;20107;-68
2023/10/19 07:44:49;;;;;;;41.47;24.02;;;;;;;;;;6253448;28;20058;-68
2023/10/19 07:47:52;;;;;;;41.20;24.55;;;;;;;;;;6251369;28;20050;-68
2023/10/19 07:50:54;;;;;;;40.17;22.20;;;;;;;;;;6244937;28;20490;-68
2023/10/19 07:53:56;;;;;;;35.22;21.05;;;;;;;;;;6233937;28;20096;-68
2023/10/19 07:56:59;;;;;;;37.65;22.88;;;;;;;;;;6225375;28;20229;-68
2023/10/19 08:00:00;;;;;;;38.42;24.00;;;;;;;;;;6238906;28;20112;-67
2023/10/19 08:03:04;;;;;;;41.35;23.77;;;;;;;;;;6250587;28;20049;-69
2023/10/19 08:06:06;;;;;;;39.60;22.75;;;;;;;;;;6251080;28;20064;-68
2023/10/19 08:09:11;;;;;;;36.42;22.63;;;;;;;;;;6248535;28;20053;-67
2023/10/19 08:12:13;;;;;;;34.70;21.70;;;;;;;;;;6230365;28;20121;-67
2023/10/19 08:15:16;;;;;;;31.42;19.80;;;;;;;;;;6223748;28;20054;-67
2023/10/19 08:18:19;;;;;;;34.47;20.40;;;;;;;;;;6223556;28;20057;-68
2023/10/19 08:21:21;;;;;;;31.90;19.77;;;;;;;;;;6228707;28;20064;-68
2023/10/19 08:24:23;;;;;;;29.40;18.60;;;;;;;;;;6225907;28;20120;-68
2023/10/19 08:27:24;;;;;;;30.50;17.25;;;;;;;;;;6218187;28;20057;-71
2023/10/19 08:30:26;;;;;;;27.83;18.58;;;;;;;;;;6225822;28;20050;-71
2023/10/19 08:33:33;;;;;;;28.13;18.42;;;;;;;;;;6233698;28;20061;-71
2023/10/19 08:36:35;;;;;;;28.45;17.85;;;;;;;;;;6229140;28;20049;-71
2023/10/19 08:39:37;;;;;;;28.77;17.45;;;;;;;;;;6231199;28;20054;-68
2023/10/19 08:42:38;;;;;;;29.58;17.83;;;;;;;;;;6231770;28;20254;-70
2023/10/19 08:45:40;;;;;;;25.92;16.38;;;;;;;;;;6228138;28;20054;-69
2023/10/19 08:48:43;;;;;;;23.88;15.43;;;;;;;;;;6227452;28;20062;-69
2023/10/19 08:51:47;;;;;;;23.93;15.90;;;;;;;;;;6223438;28;20054;-70
2023/10/19 08:54:48;;;;;;;24.70;15.85;;;;;;;;;;6227216;28;20393;-69
2023/10/19 08:57:51;;;;;;;21.38;14.52;;;;;;;;;;6228515;28;20057;-69
2023/10/19 09:00:54;;;;;;;21.52;14.57;;;;;;;;;;6230254;28;22927;-71
2023/10/19 09:03:59;;;;;;;22.35;14.60;;;;;;;;;;6230956;28;20067;-70
2023/10/19 09:07:06;;;;;;;21.42;14.18;;;;;;;;;;6224002;28;20054;-70
2023/10/19 09:10:15;;;;;;;22.13;14.18;;;;;;;;;;6224175;28;20046;-70
2023/10/19 09:13:18;;;;;;;22.58;15.63;;;;;;;;;;6226075;28;20046;-70
2023/10/19 09:16:21;;;;;;;21.50;14.57;;;;;;;;;;6256806;28;20156;-73
2023/10/19 09:19:39;;;;;;;22.47;15.43;;;;;;;;;;6252217;28;20042;-70
2023/10/19 09:22:44;;;;;;;19.65;13.85;;;;;;;;;;6247591;28;20053;-71
2023/10/19 09:25:45;;;;;;;20.52;13.32;;;;;;;;;;6255770;28;20069;-70
2023/10/19 09:28:48;;;;;;;16.52;11.80;;;;;;;;;;6247264;28;20053;-70
2023/10/19 09:31:50;;;;;;;16.52;12.27;;;;;;;;;;6247450;28;20120;-72
2023/10/19 09:34:53;;;;;;;18.95;12.65;;;;;;;;;;6249162;28;20172;-70
2023/10/19 09:37:56;;;;;;;20.08;13.63;;;;;;;;;;6249929;28;20166;-73
2023/10/19 09:41:00;;;;;;;18.88;11.90;;;;;;;;;;6245599;28;20230;-70
2023/10/19 09:44:06;;;;;;;19.60;13.00;;;;;;;;;;6248494;28;20057;-70
2023/10/19 09:47:12;;;;;;;23.15;13.75;;;;;;;;;;6251493;28;20045;-70
2023/10/19 09:50:15;;;;;;;21.45;13.25;;;;;;;;;;6256390;28;20053;-70
2023/10/19 09:53:17;;;;;;;20.70;13.23;;;;;;;;;;6256150;28;20059;-71
2023/10/19 09:56:25;;;;;;;18.57;12.50;;;;;;;;;;6252751;28;20112;-71
2023/10/19 09:59:32;;;;;;;19.83;13.27;;;;;;;;;;6252490;28;20040;-70
2023/10/19 10:02:34;;;;;;;19.67;13.38;;;;;;;;;;6250820;28;20088;-70
2023/10/19 10:05:49;;;;;;;19.35;12.75;;;;;;;;;;6251092;28;20278;-70
2023/10/19 10:08:51;;;;;;;19.92;12.93;;;;;;;;;;6243807;28;20346;-70
2023/10/19 10:11:53;;;;;;;18.33;12.35;;;;;;;;;;6252660;28;20060;-71
2023/10/19 10:15:03;;;;;;;18.50;13.15;;;;;;;;;;6248102;28;20045;-68
2023/10/19 10:18:14;;;;;;;18.60;12.43;;;;;;;;;;6254911;28;20041;-69
2023/10/19 10:21:18;;;;;;;18.55;12.27;;;;;;;;;;6250599;28;20326;-68
2023/10/19 10:24:21;;;;;;;23.38;15.95;;;;;;;;;;6252287;28;20124;-69
2023/10/19 10:27:23;;;;;;;21.42;14.80;;;;;;;;;;6249447;28;20049;-69
2023/10/19 10:30:25;;;;;;;20.55;14.68;;;;;;;;;;6251340;28;20054;-68
2023/10/19 10:33:40;;;;;;;20.70;14.52;;;;;;;;;;6253602;28;20126;-68
2023/10/19 10:37:03;;;;;;;23.08;15.90;;;;;;;;;;6248774;28;20060;-69
2023/10/19 10:40:06;;;;;;;23.73;15.10;;;;;;;;;;6250339;28;20057;-69
2023/10/19 10:43:08;;;;;;;21.63;13.95;;;;;;;;;;6251053;28;20045;-68
2023/10/19 10:46:10;;;;;;;24.85;14.63;;;;;;;;;;6251028;28;20053;-68
2023/10/19 10:49:12;;;;;;;19.50;13.05;;;;;;;;;;6250780;28;20053;-69
2023/10/19 10:52:24;;;;;;;20.95;13.57;;;;;;;;;;6246883;28;20068;-68
2023/10/19 10:55:26;;;;;;;20.48;14.98;;;;;;;;;;6251938;28;20053;-69
2023/10/19 10:58:28;;;;;;;20.45;15.52;;;;;;;;;;6240027;28;20049;-69
2023/10/19 11:01:32;;;;;;;20.60;15.73;;;;;;;;;;6247386;28;20241;-70
2023/10/19 11:04:34;;;;;;;;;;;;;;;;;;6242294;28;20060;-70
2023/10/19 11:07:37;;;;;;;21.27;15.35;;;;;;;;;;6247704;28;19925;-70
2023/10/19 11:10:39;;;;;;;21.13;15.83;;;;;;;;;;6247559;28;20083;-73
2023/10/19 11:13:41;;;;;;;21.58;16.63;;;;;;;;;;6248526;28;20045;-71
2023/10/19 11:16:43;;;;;;;24.25;16.35;;;;;;;;;;6251520;28;20104;-70
2023/10/19 11:19:44;;;;;;;21.27;15.55;;;;;;;;;;6251814;28;20057;-70
2023/10/19 11:22:51;;;;;;;22.33;15.55;;;;;;;;;;6248320;28;20050;-71
2023/10/19 11:25:59;;;;;;;19.83;15.48;;;;;;;;;;6243437;28;20053;-70
2023/10/19 11:29:04;;;;;;;17.55;13.73;;;;;;;;;;6245432;28;20241;-71
2023/10/19 11:32:05;;;;;;;22.70;15.32;;;;;;;;;;6245885;28;20060;-69
2023/10/19 11:35:08;;;;;;;22.20;15.10;;;;;;;;;;6245399;28;20067;-70
2023/10/19 11:38:11;;;;;;;19.40;14.23;;;;;;;;;;6224973;28;20064;-70
2023/10/19 11:41:15;;;;;;;24.08;16.75;;;;;;;;;;6234237;28;20053;-68
2023/10/19 11:44:17;;;;;;;21.05;16.08;;;;;;;;;;6246614;28;20049;-69
2023/10/19 11:47:20;;;;;;;20.42;15.65;;;;;;;;;;6242243;28;20055;-73
2023/10/19 11:50:24;;;;;;;21.10;15.73;;;;;;;;;;6251827;28;20056;-70
2023/10/19 11:53:32;;;;;;;21.15;15.52;;;;;;;;;;6243747;28;20321;-68
2023/10/19 11:56:34;;;;;;;20.10;15.23;;;;;;;;;;6248961;28;20053;-69
2023/10/19 11:59:36;;;;;;;18.92;14.88;;;;;;;;;;6245778;28;20334;-69
2023/10/19 12:02:38;;;;;;;19.25;14.20;;;;;;;;;;6247923;28;20116;-69
2023/10/19 12:05:42;;;;;;;18.60;13.73;;;;;;;;;;6254101;28;20128;-70
2023/10/19 12:08:46;;;;;;;18.95;13.45;;;;;;;;;;6242304;28;20203;-69
2023/10/19 12:11:53;;;;;;;20.00;13.90;;;;;;;;;;6231892;28;20099;-69
2023/10/19 12:14:55;;;;;;;17.98;13.82;;;;;;;;;;6220598;28;20394;-70
2023/10/19 12:17:57;;;;;;;18.42;14.18;;;;;;;;;;6224269;28;20106;-72
2023/10/19 12:20:59;;;;;;;19.88;13.73;;;;;;;;;;6227441;28;20334;-70
2023/10/19 12:24:04;;;;;;;19.02;13.88;;;;;;;;;;6227901;28;20060;-70
2023/10/19 12:27:08;;;;;;;21.90;13.93;;;;;;;;;;6228956;28;20357;-70
2023/10/19 12:30:19;;;;;;;21.90;14.77;;;;;;;;;;6214685;28;20053;-70
2023/10/19 12:33:20;;;;;;;19.88;14.38;;;;;;;;;;6219906;28;20046;-70
2023/10/19 12:36:32;;;;;;;20.15;15.10;;;;;;;;;;6233175;28;20108;-73
2023/10/19 12:39:43;;;;;;;20.60;14.93;;;;;;;;;;6229662;28;20345;-69
2023/10/19 12:42:44;;;;;;;17.77;14.18;;;;;;;;;;6226487;28;20403;-69
2023/10/19 12:45:50;;;;;;;19.38;14.95;;;;;;;;;;6231238;28;20108;-69
2023/10/19 12:48:52;;;;;;;21.70;14.68;;;;;;;;;;6230378;28;20058;-68
2023/10/19 12:51:54;;;;;;;22.10;14.38;;;;;;;;;;6228970;28;20330;-70
2023/10/19 12:55:00;;;;;;;18.60;13.60;;;;;;;;;;6228553;28;20314;-69
2023/10/19 12:58:07;;;;;;;15.95;12.55;;;;;;;;;;6223855;28;20069;-69
2023/10/19 13:01:16;;;;;;;19.40;13.95;;;;;;;;;;6225568;28;20215;-69
2023/10/19 13:04:18;;;;;;;16.60;13.65;;;;;;;;;;6245595;28;20049;-70
2023/10/19 13:07:19;;;;;;;18.27;13.73;;;;;;;;;;6247794;28;20394;-69
2023/10/19 13:10:23;;;;;;;18.70;12.68;;;;;;;;;;6251430;28;20579;-70
2023/10/19 13:13:26;;;;;;;20.02;14.13;;;;;;;;;;6230664;28;20048;-70
2023/10/19 13:16:28;;;;;;;18.48;13.95;;;;;;;;;;6223886;28;20108;-70
2023/10/19 13:19:29;;;;;;;18.85;14.32;;;;;;;;;;6244888;28;20053;-70
2023/10/19 13:22:33;;;;;;;22.35;14.38;;;;;;;;;;6244329;28;20057;-69
2023/10/19 13:25:46;;;;;;;;;;;;;;;;;;6253101;28;20061;-69
2023/10/19 13:28:50;;;;;;;19.80;13.50;;;;;;;;;;6254752;28;20180;-70
2023/10/19 13:31:52;;;;;;;19.13;14.60;;;;;;;;;;6255756;28;20057;-70
2023/10/19 13:34:53;;;;;;;19.75;14.65;;;;;;;;;;6252918;28;20061;-70
2023/10/19 13:37:55;;;;;;;19.65;14.85;;;;;;;;;;6247750;28;20041;-70
2023/10/19 13:40:58;;;;;;;22.65;14.65;;;;;;;;;;6247106;28;20053;-71
2023/10/19 13:44:00;;;;;;;20.77;15.40;;;;;;;;;;6253990;28;20325;-71
2023/10/19 13:47:04;;;;;;;22.85;16.55;;;;;;;;;;6251470;28;20114;-69
2023/10/19 13:50:08;;;;;;;24.33;16.02;;;;;;;;;;6255903;28;20253;-68
2023/10/19 13:53:09;;;;;;;23.05;16.50;;;;;;;;;;6255410;28;20042;-70
2023/10/19 13:56:14;;;;;;;24.48;16.73;;;;;;;;;;6248423;28;20120;-68
2023/10/19 13:59:16;;;;;;;23.15;17.05;;;;;;;;;;6247211;28;20061;-70
2023/10/19 14:02:19;;;;;;;22.95;16.90;;;;;;;;;;6254539;28;20211;-73
2023/10/19 14:05:24;;;;;;;23.10;16.33;;;;;;;;;;6250104;28;20053;-69
2023/10/19 14:08:25;;;;;;;26.02;16.20;;;;;;;;;;6252038;28;20226;-73
2023/10/19 14:11:29;;;;;;;23.27;16.85;;;;;;;;;;6237102;28;20392;-69
2023/10/19 14:14:30;;;;;;;24.07;17.53;;;;;;;;;;6221247;28;20053;-70
2023/10/19 14:17:32;;;;;;;25.38;17.55;;;;;;;;;;6241023;28;20061;-69
2023/10/19 14:20:34;;;;;;;26.00;17.30;;;;;;;;;;6224019;28;20365;-70
2023/10/19 14:23:36;;;;;;;24.02;17.13;;;;;;;;;;6224443;28;20058;-70
2023/10/19 14:26:42;;;;;;;;;;;;;;;;;;6229202;28;20100;-69
2023/10/19 14:29:44;;;;;;;20.50;14.77;;;;;;;;;;6227316;28;19924;-69
2023/10/19 14:32:47;;;;;;;23.85;16.38;;;;;;;;;;6235327;28;20057;-69
2023/10/19 14:35:49;;;;;;;21.90;16.27;;;;;;;;;;6245603;28;20060;-70
2023/10/19 14:38:51;;;;;;;23.70;16.98;;;;;;;;;;6233321;28;20111;-69
2023/10/19 14:41:54;;;;;;;24.38;16.55;;;;;;;;;;6238496;28;20203;-69
2023/10/19 14:44:56;;;;;;;21.20;15.85;;;;;;;;;;6223929;28;20088;-70
2023/10/19 14:48:03;;;;;;;21.00;15.35;;;;;;;;;;6228026;28;20049;-71
2023/10/19 14:51:05;;;;;;;22.60;14.85;;;;;;;;;;6226010;28;20068;-71
2023/10/19 14:54:07;;;;;;;21.65;15.75;;;;;;;;;;6222520;28;20338;-70
2023/10/19 14:57:10;;;;;;;20.15;15.05;;;;;;;;;;6218966;28;20053;-69
2023/10/19 15:00:18;;;;;;;21.70;15.50;;;;;;;;;;6224274;28;20071;-70
2023/10/19 15:03:20;;;;;;;20.40;15.55;;;;;;;;;;6236156;28;20499;-71
2023/10/19 15:06:22;;;;;;;21.65;15.23;;;;;;;;;;6246876;28;20369;-71
2023/10/19 15:09:25;;;;;;;17.95;13.75;;;;;;;;;;6246325;28;20057;-70
2023/10/19 15:12:28;;;;;;;17.92;13.25;;;;;;;;;;6247075;28;20060;-71
2023/10/19 15:15:31;;;;;;;16.83;13.88;;;;;;;;;;6249219;28;20129;-69
2023/10/19 15:18:36;;;;;;;19.75;14.20;;;;;;;;;;6244817;28;20061;-70
2023/10/19 15:21:37;;;;;;;19.30;14.60;;;;;;;;;;6247448;28;20085;-70
2023/10/19 15:24:39;;;;;;;19.30;14.15;;;;;;;;;;6247758;28;20140;-68
2023/10/19 15:27:43;;;;;;;17.90;13.52;;;;;;;;;;6248770;28;20060;-69
2023/10/19 15:30:44;;;;;;;18.52;14.15;;;;;;;;;;6249600;28;20937;-69
2023/10/19 15:33:47;;;;;;;20.25;14.20;;;;;;;;;;6249790;28;20049;-69
2023/10/19 15:36:49;;;;;;;19.40;13.38;;;;;;;;;;6249001;28;20064;-69
2023/10/19 15:39:50;;;;;;;20.67;14.65;;;;;;;;;;6256588;28;20053;-70
2023/10/19 15:42:54;;;;;;;19.23;13.77;;;;;;;;;;6261700;28;20238;-69
2023/10/19 15:46:02;;;;;;;16.23;11.90;;;;;;;;;;6260468;28;20061;-70
2023/10/19 15:49:04;;;;;;;19.95;14.10;;;;;;;;;;6257061;28;20084;-70
2023/10/19 15:52:05;;;;;;;20.45;14.52;;;;;;;;;;6252383;28;20331;-70
2023/10/19 15:55:07;;;;;;;19.95;14.10;;;;;;;;;;6254680;28;20045;-69
2023/10/19 15:58:11;;;;;;;16.38;12.40;;;;;;;;;;6253521;28;20046;-71
2023/10/19 16:01:14;;;;;;;16.10;12.60;;;;;;;;;;6250305;28;20045;-74
2023/10/19 16:04:16;;;;;;;17.52;12.45;;;;;;;;;;6255737;28;20334;-71
2023/10/19 16:07:17;;;;;;;18.05;13.45;;;;;;;;;;6253725;28;20053;-69
2023/10/19 16:10:20;;;;;;;20.23;13.77;;;;;;;;;;6253576;28;20385;-70
2023/10/19 16:13:26;;;;;;;19.80;13.85;;;;;;;;;;6245490;28;20152;-70
2023/10/19 16:16:28;;;;;;;17.67;13.40;;;;;;;;;;6251713;28;20086;-70
2023/10/19 16:19:30;;;;;;;17.55;13.00;;;;;;;;;;6248539;28;20081;-69
2023/10/19 16:22:32;;;;;;;18.13;12.93;;;;;;;;;;6249669;28;20399;-69
2023/10/19 16:25:33;;;;;;;14.98;11.65;;;;;;;;;;6245328;28;20061;-70
2023/10/19 16:28:37;;;;;;;15.73;11.57;;;;;;;;;;6238069;28;20084;-70
2023/10/19 16:31:38;;;;;;;15.30;11.60;;;;;;;;;;6247756;28;20451;-69
2023/10/19 16:34:40;;;;;;;16.85;12.23;;;;;;;;;;6247418;28;22517;-71
2023/10/19 16:37:41;;;;;;;16.48;11.93;;;;;;;;;;6247289;28;20212;-70
2023/10/19 16:40:43;;;;;;;17.63;12.93;;;;;;;;;;6247608;28;20057;-70
2023/10/19 16:43:47;;;;;;;14.35;11.07;;;;;;;;;;6242520;28;20322;-69
2023/10/19 16:46:49;;;;;;;16.38;12.05;;;;;;;;;;6244490;28;20125;-70
2023/10/19 16:49:50;;;;;;;15.30;11.95;;;;;;;;;;6247949;28;20282;-70
2023/10/19 16:52:52;;;;;;;14.48;10.90;;;;;;;;;;6224138;28;20226;-70
2023/10/19 16:56:00;;;;;;;14.70;10.88;;;;;;;;;;6243282;28;20050;-72
2023/10/19 16:59:03;;;;;;;13.48;10.45;;;;;;;;;;6247092;28;20076;-69
2023/10/19 17:02:05;;;;;;;11.13;9.10;;;;;;;;;;6255487;28;20071;-69
2023/10/19 17:05:07;;;;;;;12.05;9.80;;;;;;;;;;6254622;28;20049;-69
2023/10/19 17:08:09;;;;;;;12.07;9.75;;;;;;;;;;6247879;28;20640;-69
2023/10/19 17:11:11;;;;;;;11.68;9.95;;;;;;;;;;6248508;28;20095;-70
2023/10/19 17:14:14;;;;;;;12.80;10.40;;;;;;;;;;6248071;28;20635;-70
2023/10/19 17:17:17;;;;;;;15.55;12.27;;;;;;;;;;6254629;28;20045;-70
2023/10/19 17:20:19;;;;;;;14.73;11.48;;;;;;;;;;6256176;28;20056;-71
2023/10/19 17:23:20;;;;;;;14.98;11.80;;;;;;;;;;6253144;28;20091;-69
2023/10/19 17:26:23;;;;;;;15.63;11.55;;;;;;;;;;6251896;28;20046;-70
2023/10/19 17:29:27;;;;;;;17.85;12.52;;;;;;;;;;6250694;28;20049;-70
2023/10/19 17:32:28;;;;;;;17.42;12.93;;;;;;;;;;6253589;28;20088;-70
2023/10/19 17:35:31;;;;;;;17.15;13.35;;;;;;;;;;6249882;28;20051;-70
2023/10/19 17:38:32;;;;;;;17.13;13.13;;;;;;;;;;6253184;28;20337;-70
2023/10/19 17:41:34;;;;;;;17.13;13.57;;;;;;;;;;6235077;28;20056;-71
2023/10/19 17:44:37;;;;;;;17.75;13.30;;;;;;;;;;6224286;28;20084;-70
2023/10/19 17:47:39;;;;;;;17.70;13.13;;;;;;;;;;6221174;28;20278;-70
2023/10/19 17:50:42;;;;;;;16.98;13.02;;;;;;;;;;6227295;28;20054;-70